createdAt,value
2023-06-20T00:00:26.476Z,98869.97
2023-06-20T00:02:54.326Z,98861.44
2023-06-20T00:05:22.558Z,98852.91
2023-06-20T00:07:51.723Z,98856.50
2023-06-20T00:10:19.577Z,98849.63
2023-06-20T00:12:47.527Z,98848.91
2023-06-20T00:15:15.407Z,98846.44
2023-06-20T00:17:43.267Z,98839.56
2023-06-20T00:20:11.712Z,98851.69
2023-06-20T00:22:39.608Z,98847.44
2023-06-20T00:25:09.418Z,98853.63
2023-06-20T00:27:37.371Z,98851.16
2023-06-20T00:30:05.934Z,98839.06
2023-06-20T00:32:34.534Z,98836.56
2023-06-20T00:35:02.454Z,98841.78
2023-06-20T00:37:30.413Z,98844.41
2023-06-20T00:39:58.360Z,98856.53
2023-06-20T00:42:27.831Z,98849.66
2023-06-20T00:44:56.189Z,98849.78
2023-06-20T00:47:25.184Z,98856.69
2023-06-20T00:49:55.158Z,98847.19
2023-06-20T00:52:24.117Z,98856.00
2023-06-20T00:54:51.956Z,98856.81
2023-06-20T00:57:21.780Z,98855.19
2023-06-20T00:59:52.143Z,98857.81
2023-06-20T01:02:21.713Z,98861.38
2023-06-20T01:04:50.030Z,98856.31
2023-06-20T01:07:26.162Z,98846.94
2023-06-20T01:10:00.214Z,98834.13
2023-06-20T01:12:34.840Z,98832.63
2023-06-20T01:15:15.101Z,98825.88
2023-06-20T01:17:47.814Z,98816.41
2023-06-20T01:20:20.622Z,98818.34
2023-06-20T01:22:58.498Z,98805.53
2023-06-20T01:25:34.578Z,98810.75
2023-06-20T01:28:08.447Z,98794.53
2023-06-20T01:30:43.352Z,98808.44
2023-06-20T01:33:14.934Z,98811.88
2023-06-20T01:35:45.102Z,98799.78
2023-06-20T01:38:16.870Z,98801.69
2023-06-20T01:40:50.445Z,98800.03
2023-06-20T01:43:20.698Z,98795.78
2023-06-20T01:45:51.210Z,98802.66
2023-06-20T01:48:22.154Z,98800.03
2023-06-20T01:50:51.524Z,98802.66
2023-06-20T01:53:22.451Z,98810.50
2023-06-20T01:55:51.683Z,98805.41
2023-06-20T01:58:20.739Z,98809.84
2023-06-20T02:00:50.246Z,98805.56
2023-06-20T02:03:21.009Z,98799.66
2023-06-20T02:05:50.497Z,98804.06
2023-06-20T02:08:20.569Z,98806.69
2023-06-20T02:10:48.845Z,98808.34
2023-06-20T02:13:17.438Z,98813.56
2023-06-20T02:15:46.516Z,98811.94
2023-06-20T02:18:14.445Z,98825.69
2023-06-20T02:20:42.799Z,98831.72
2023-06-20T02:23:12.147Z,98837.78
2023-06-20T02:25:46.846Z,98833.38
2023-06-20T02:28:16.335Z,98839.59
2023-06-20T02:30:50.062Z,98842.19
2023-06-20T02:33:20.975Z,98842.19
2023-06-20T02:35:51.842Z,98837.94
2023-06-20T02:38:19.719Z,98838.91
2023-06-20T02:40:51.593Z,98843.31
2023-06-20T02:43:19.565Z,98835.59
2023-06-20T02:45:52.603Z,98838.22
2023-06-20T02:48:29.424Z,98833.13
2023-06-20T02:51:07.624Z,98835.75
2023-06-20T02:53:45.387Z,98833.28
2023-06-20T02:56:17.042Z,98835.06
2023-06-20T02:58:48.906Z,98840.28
2023-06-20T03:01:24.292Z,98835.22
2023-06-20T03:03:55.250Z,98832.59
2023-06-20T03:06:28.219Z,98827.63
2023-06-20T03:08:59.623Z,98831.06
2023-06-20T03:11:29.240Z,98825.16
2023-06-20T03:13:57.302Z,98826.97
2023-06-20T03:16:27.718Z,98816.78
2023-06-20T03:18:55.948Z,98812.50
2023-06-20T03:21:29.420Z,98813.34
2023-06-20T03:24:00.070Z,98825.47
2023-06-20T03:26:29.843Z,98819.53
2023-06-20T03:28:58.428Z,98820.34
2023-06-20T03:31:27.533Z,98823.81
2023-06-20T03:33:55.398Z,98820.50
2023-06-20T03:36:23.274Z,98819.66
2023-06-20T03:38:53.326Z,98821.47
2023-06-20T03:41:23.022Z,98808.66
2023-06-20T03:43:52.399Z,98810.44
2023-06-20T03:46:20.279Z,98809.63
2023-06-20T03:48:49.704Z,98799.44
2023-06-20T03:51:18.637Z,98799.56
2023-06-20T03:53:46.578Z,98786.78
2023-06-20T03:56:14.561Z,98768.91
2023-06-20T03:58:42.867Z,98766.44
2023-06-20T04:01:12.034Z,98757.88
2023-06-20T04:03:39.884Z,98767.41
2023-06-20T04:06:07.894Z,98766.56
2023-06-20T04:08:36.657Z,98771.78
2023-06-20T04:11:04.694Z,98773.56
2023-06-20T04:13:32.537Z,98773.56
2023-06-20T04:16:00.480Z,98764.91
2023-06-20T04:18:31.377Z,98758.34
2023-06-20T04:20:59.379Z,98748.97
2023-06-20T04:23:27.609Z,98727.69
2023-06-20T04:25:55.544Z,98714.88
2023-06-20T04:28:23.452Z,98718.59
2023-06-20T04:30:57.971Z,98711.88
2023-06-20T04:33:26.386Z,98718.75
2023-06-20T04:35:58.900Z,98704.31
2023-06-20T04:38:32.672Z,98666.78
2023-06-20T04:41:01.970Z,98663.50
2023-06-20T04:43:30.132Z,98662.94
2023-06-20T04:45:58.593Z,98661.31
2023-06-20T04:48:29.507Z,98644.94
2023-06-20T04:50:59.312Z,98641.66
2023-06-20T04:53:27.441Z,98635.88
2023-06-20T04:55:55.672Z,98627.38
2023-06-20T04:58:23.561Z,98628.47
2023-06-20T05:00:53.128Z,98632.84
2023-06-20T05:03:21.622Z,98617.47
2023-06-20T05:05:49.552Z,98617.63
2023-06-20T05:08:18.876Z,98622.03
2023-06-20T05:10:46.928Z,98616.81
2023-06-20T05:13:14.754Z,98630.84
2023-06-20T05:15:42.649Z,98615.44
2023-06-20T05:18:10.547Z,98624.91
2023-06-20T05:20:38.401Z,98641.28
2023-06-20T05:23:06.329Z,98651.75
2023-06-20T05:25:35.749Z,98657.63
2023-06-20T05:28:06.514Z,98668.09
2023-06-20T05:30:34.654Z,98675.91
2023-06-20T05:33:02.539Z,98672.50
2023-06-20T05:35:30.505Z,98676.88
2023-06-20T05:37:58.333Z,98683.91
2023-06-20T05:40:26.611Z,98687.34
2023-06-20T05:42:56.028Z,98700.41
2023-06-20T05:45:23.872Z,98704.66
2023-06-20T05:47:51.748Z,98714.97
2023-06-20T05:50:19.672Z,98717.56
2023-06-20T05:52:47.491Z,98725.41
2023-06-20T05:55:15.376Z,98739.97
2023-06-20T05:57:43.162Z,98754.56
2023-06-20T06:00:13.849Z,98760.63
2023-06-20T06:02:47.629Z,98772.72
2023-06-20T06:05:15.563Z,98782.03
2023-06-20T06:07:43.379Z,98800.19
2023-06-20T06:10:11.803Z,98815.59
2023-06-20T06:12:41.726Z,98832.94
2023-06-20T06:15:10.940Z,98841.59
2023-06-20T06:17:40.204Z,98851.91
2023-06-20T06:20:12.574Z,98868.97
2023-06-20T06:22:40.395Z,98891.38
2023-06-20T06:25:09.161Z,98893.84
2023-06-20T06:27:37.095Z,98924.00
2023-06-20T06:30:05.557Z,98940.22
2023-06-20T06:32:35.945Z,98966.94
2023-06-20T06:35:06.103Z,98985.66
2023-06-20T06:37:34.694Z,99008.22
2023-06-20T06:40:05.065Z,98984.94
2023-06-20T06:42:32.901Z,98996.22
2023-06-20T06:45:03.769Z,98989.50
2023-06-20T06:47:31.672Z,98991.28
2023-06-20T06:49:59.565Z,99006.81
2023-06-20T06:52:28.907Z,99022.25
2023-06-20T06:54:56.995Z,99035.88
2023-06-20T06:57:24.792Z,99051.41
2023-06-20T06:59:52.685Z,99071.94
2023-06-20T07:02:21.693Z,99097.69
2023-06-20T07:04:49.572Z,99111.44
2023-06-20T07:07:17.376Z,99123.56
2023-06-20T07:09:46.602Z,99136.50
2023-06-20T07:12:15.098Z,99150.28
2023-06-20T07:14:42.975Z,99158.00
2023-06-20T07:17:10.891Z,99176.84
2023-06-20T07:19:38.780Z,99184.56
2023-06-20T07:22:07.198Z,99210.47
2023-06-20T07:24:35.093Z,99214.06
2023-06-20T07:27:04.510Z,99211.44
2023-06-20T07:29:32.511Z,99207.16
2023-06-20T07:32:00.530Z,99209.88
2023-06-20T07:34:28.452Z,99235.56
2023-06-20T07:36:56.261Z,99254.44
2023-06-20T07:39:24.200Z,99266.56
2023-06-20T07:41:52.005Z,99286.25
2023-06-20T07:44:21.190Z,99302.53
2023-06-20T07:46:49.074Z,99318.91
2023-06-20T07:49:16.892Z,99342.09
2023-06-20T07:51:47.340Z,99357.50
2023-06-20T07:54:16.444Z,99387.44
2023-06-20T07:56:44.374Z,99403.81
2023-06-20T07:59:12.359Z,99428.81
2023-06-20T08:01:41.600Z,99460.53
2023-06-20T08:04:09.540Z,99495.69
2023-06-20T08:06:37.403Z,99493.91
2023-06-20T08:09:06.247Z,99513.75
2023-06-20T08:11:35.589Z,99504.25
2023-06-20T08:14:03.658Z,99518.16
2023-06-20T08:16:31.513Z,99487.38
2023-06-20T08:19:00.912Z,99489.03
2023-06-20T08:21:28.773Z,99507.25
2023-06-20T08:23:56.856Z,99512.38
2023-06-20T08:26:24.740Z,99516.66
2023-06-20T08:28:52.567Z,99527.81
2023-06-20T08:31:20.418Z,99551.13
2023-06-20T08:33:48.329Z,99575.94
2023-06-20T08:36:17.507Z,99588.81
2023-06-20T08:38:45.353Z,99615.41
2023-06-20T08:41:13.215Z,99644.69
2023-06-20T08:43:41.461Z,99660.13
2023-06-20T08:46:09.329Z,99661.00
2023-06-20T08:48:37.223Z,99678.09
2023-06-20T08:51:05.125Z,99722.03
2023-06-20T08:53:35.039Z,99776.19
2023-06-20T08:56:04.162Z,99825.09
2023-06-20T08:58:33.588Z,99834.47
2023-06-20T09:01:01.472Z,99867.94
2023-06-20T09:03:29.801Z,99937.59
2023-06-20T09:05:59.028Z,100020.88
2023-06-20T09:08:38.341Z,100104.41
2023-06-20T09:11:07.856Z,100173.94
2023-06-20T09:13:35.950Z,100217.84
2023-06-20T09:16:08.450Z,100304.78
2023-06-20T09:18:36.932Z,100390.13
2023-06-20T09:21:05.463Z,100462.38
2023-06-20T09:23:34.533Z,100526.28
2023-06-20T09:26:15.052Z,100547.78
2023-06-20T09:28:42.943Z,100603.09
2023-06-20T09:31:10.866Z,100609.94
2023-06-20T09:33:39.356Z,100646.97
2023-06-20T09:36:14.645Z,100733.16
2023-06-20T09:38:44.277Z,100745.25
2023-06-20T09:41:18.242Z,100809.94
2023-06-20T09:43:46.316Z,100838.28
2023-06-20T09:46:15.365Z,100907.47
2023-06-20T09:48:45.614Z,100939.56
2023-06-20T09:51:13.472Z,100960.28
2023-06-20T09:53:46.642Z,101003.38
2023-06-20T09:56:16.339Z,101050.81
2023-06-20T09:58:47.135Z,101095.72
2023-06-20T10:01:16.495Z,101100.03
2023-06-20T10:03:45.274Z,101103.50
2023-06-20T10:06:13.440Z,101078.34
2023-06-20T10:08:42.427Z,101095.59
2023-06-20T10:11:10.287Z,101112.97
2023-06-20T10:13:38.267Z,101124.97
2023-06-20T10:16:07.724Z,101152.66
2023-06-20T10:18:39.835Z,101186.31
2023-06-20T10:21:08.320Z,101194.13
2023-06-20T10:23:38.560Z,101232.97
2023-06-20T10:26:09.237Z,101286.59
2023-06-20T10:28:39.003Z,101332.38
2023-06-20T10:31:08.395Z,101377.28
2023-06-20T10:33:37.529Z,101415.41
2023-06-20T10:36:07.560Z,101418.78
2023-06-20T10:38:38.605Z,101421.41
2023-06-20T10:41:11.367Z,101427.28
2023-06-20T10:43:48.966Z,101431.66
2023-06-20T10:46:19.105Z,101449.75
2023-06-20T10:48:47.203Z,101497.34
2023-06-20T10:51:15.164Z,101560.56
2023-06-20T10:53:42.975Z,101574.41
2023-06-20T10:56:23.649Z,101589.94
2023-06-20T10:58:51.559Z,101675.56
2023-06-20T11:01:20.980Z,101764.75
2023-06-20T11:03:50.369Z,101881.06
2023-06-20T11:06:18.408Z,101975.50
2023-06-20T11:08:47.110Z,102030.16
2023-06-20T11:11:14.998Z,102099.63
2023-06-20T11:13:44.797Z,102151.72
2023-06-20T11:16:19.230Z,102183.88
2023-06-20T11:18:48.619Z,102235.91
2023-06-20T11:21:17.518Z,102269.66
2023-06-20T11:23:45.347Z,102320.06
2023-06-20T11:26:13.147Z,102351.31
2023-06-20T11:28:40.992Z,102263.34
2023-06-20T11:31:12.448Z,102226.84
2023-06-20T11:33:40.468Z,102215.31
2023-06-20T11:36:10.601Z,102267.47
2023-06-20T11:38:40.597Z,102313.44
2023-06-20T11:41:10.009Z,102409.94
2023-06-20T11:43:39.687Z,102489.06
2023-06-20T11:46:08.650Z,102566.53
2023-06-20T11:48:37.498Z,102630.81
2023-06-20T11:51:06.906Z,102680.47
2023-06-20T11:53:37.416Z,102708.16
2023-06-20T11:58:40.453Z,102641.69
2023-06-20T12:01:12.183Z,102551.03
2023-06-20T12:03:42.662Z,102431.56
2023-06-20T12:06:30.584Z,102342.72
2023-06-20T12:09:01.554Z,102229.41
2023-06-20T12:11:29.712Z,102188.44
2023-06-20T12:13:57.924Z,102218.81
2023-06-20T12:16:27.219Z,102280.56
2023-06-20T12:18:57.886Z,102381.28
2023-06-20T12:21:25.757Z,102500.38
2023-06-20T12:23:53.649Z,102603.13
2023-06-20T12:26:23.342Z,102685.78
2023-06-20T12:28:51.326Z,102773.72
2023-06-20T12:31:19.164Z,102852.22
2023-06-20T12:33:47.043Z,102878.25
2023-06-20T12:36:16.682Z,102874.66
2023-06-20T12:38:44.768Z,102882.50
2023-06-20T12:41:12.865Z,102862.13
2023-06-20T12:43:42.187Z,102840.34
2023-06-20T12:46:11.358Z,102840.91
2023-06-20T12:48:39.355Z,102886.19
2023-06-20T12:51:07.218Z,102926.22
2023-06-20T12:53:36.343Z,102964.56
2023-06-20T12:56:04.561Z,102955.63
2023-06-20T12:58:33.777Z,102939.81
2023-06-20T13:01:03.518Z,102942.31
2023-06-20T13:03:31.391Z,102984.06
2023-06-20T13:05:59.444Z,103010.13
2023-06-20T13:08:27.966Z,103008.31
2023-06-20T13:10:55.820Z,103016.84
2023-06-20T13:13:23.657Z,103010.59
2023-06-20T13:15:51.522Z,103031.44
2023-06-20T13:18:21.673Z,103021.66
2023-06-20T13:20:49.858Z,103012.00
2023-06-20T13:23:17.741Z,102989.06
2023-06-20T13:25:46.025Z,102920.06
2023-06-20T13:28:14.140Z,102869.28
2023-06-20T13:30:44.253Z,102854.31
2023-06-20T13:33:12.310Z,102870.78
2023-06-20T13:35:41.522Z,102882.06
2023-06-20T13:38:09.822Z,102958.69
2023-06-20T13:40:37.846Z,103006.53
2023-06-20T13:43:07.803Z,103050.97
2023-06-20T13:45:36.231Z,103088.47
2023-06-20T13:48:04.153Z,103145.09
2023-06-20T13:50:32.018Z,103248.97
2023-06-20T13:53:01.213Z,103367.88
2023-06-20T13:55:29.031Z,103497.44
2023-06-20T13:57:56.901Z,103589.13
2023-06-20T14:00:25.024Z,103666.97
2023-06-20T14:02:53.151Z,103753.50
2023-06-20T14:05:21.323Z,103821.81
2023-06-20T14:07:50.393Z,103867.31
2023-06-20T14:10:19.602Z,103860.94
2023-06-20T14:12:49.116Z,103890.56
2023-06-20T14:15:17.226Z,103991.38
2023-06-20T14:17:45.236Z,104051.75
2023-06-20T14:20:13.572Z,104102.53
2023-06-20T14:22:41.588Z,104170.03
2023-06-20T14:25:09.495Z,104192.72
2023-06-20T14:27:38.707Z,104183.81
2023-06-20T14:30:08.648Z,104205.53
2023-06-20T14:32:36.651Z,104264.19
2023-06-20T14:35:04.830Z,104272.75
2023-06-20T14:37:32.647Z,104274.41
2023-06-20T14:40:00.522Z,104246.94
2023-06-20T14:42:28.346Z,104237.03
2023-06-20T14:44:57.559Z,104136.56
2023-06-20T14:47:25.539Z,104095.19
2023-06-20T14:49:53.476Z,104035.34
2023-06-20T14:52:21.404Z,104060.50
2023-06-20T14:54:49.213Z,104070.00
2023-06-20T14:57:17.050Z,103989.81
2023-06-20T14:59:44.906Z,104017.69
2023-06-20T15:02:14.131Z,104039.63
2023-06-20T15:04:42.016Z,104022.66
2023-06-20T15:07:09.849Z,103955.66
2023-06-20T15:09:37.674Z,103943.38
2023-06-20T15:12:06.369Z,103942.25
2023-06-20T15:14:36.128Z,103869.19
2023-06-20T15:17:04.051Z,103902.31
2023-06-20T15:19:33.806Z,103888.09
2023-06-20T15:22:01.736Z,103854.59
2023-06-20T15:24:33.497Z,103772.81
2023-06-20T15:27:01.708Z,103803.34
2023-06-20T15:29:29.597Z,103832.94
2023-06-20T15:31:57.455Z,103860.00
2023-06-20T15:34:25.393Z,103834.34
2023-06-20T15:36:54.601Z,103787.69
2023-06-20T15:39:22.413Z,103760.25
2023-06-20T15:41:50.632Z,103733.81
2023-06-20T15:44:18.658Z,103675.81
2023-06-20T15:46:54.071Z,103527.41
2023-06-20T15:49:23.136Z,103418.66
2023-06-20T15:51:51.203Z,103348.50
2023-06-20T15:54:20.777Z,103291.38
2023-06-20T15:56:48.680Z,103203.69
2023-06-20T15:59:17.684Z,103104.88
2023-06-20T16:01:46.238Z,102948.22
2023-06-20T16:04:14.362Z,102845.06
2023-06-20T16:06:42.278Z,102772.44
2023-06-20T16:09:10.495Z,102759.16
2023-06-20T16:11:39.741Z,102855.25
2023-06-20T16:14:07.720Z,102921.50
2023-06-20T16:16:35.638Z,103057.69
2023-06-20T16:19:03.645Z,103103.06
2023-06-20T16:21:32.588Z,103070.56
2023-06-20T16:24:00.612Z,102960.31
2023-06-20T16:26:28.736Z,102858.09
2023-06-20T16:28:57.972Z,102781.09
2023-06-20T16:31:25.908Z,102791.41
2023-06-20T16:33:55.312Z,102827.97
2023-06-20T16:36:23.155Z,102891.66
2023-06-20T16:38:52.258Z,102937.94
2023-06-20T16:41:20.116Z,102942.22
2023-06-20T16:43:47.986Z,102936.75
2023-06-20T16:46:17.890Z,102954.94
2023-06-20T16:48:47.451Z,102996.75
2023-06-20T16:51:16.705Z,103024.63
2023-06-20T16:53:45.535Z,103052.50
2023-06-20T16:56:13.478Z,103048.03
2023-06-20T16:58:41.305Z,102986.72
2023-06-20T17:01:11.604Z,102949.91
2023-06-20T17:03:40.956Z,102921.91
2023-06-20T17:06:08.815Z,102884.13
2023-06-20T17:08:36.696Z,102811.50
2023-06-20T17:11:04.559Z,102778.31
2023-06-20T17:13:32.418Z,102747.44
2023-06-20T17:16:00.230Z,102701.09
2023-06-20T17:18:28.054Z,102645.31
2023-06-20T17:20:57.341Z,102557.03
2023-06-20T17:23:25.237Z,102498.63
2023-06-20T17:25:53.117Z,102455.81
2023-06-20T17:28:21.397Z,102396.50
2023-06-20T17:30:49.236Z,102344.16
2023-06-20T17:33:17.560Z,102275.31
2023-06-20T17:35:45.425Z,102199.50
2023-06-20T17:38:14.835Z,102136.75
2023-06-20T17:40:43.311Z,102074.94
2023-06-20T17:43:11.189Z,102008.84
2023-06-20T17:45:39.092Z,101975.81
2023-06-20T17:48:07.086Z,101942.78
2023-06-20T17:50:35.031Z,101893.94
2023-06-20T17:53:02.892Z,101854.84
2023-06-20T17:55:32.120Z,101821.00
2023-06-20T17:58:02.328Z,101782.69
2023-06-20T18:00:31.638Z,101734.03
2023-06-20T18:02:59.749Z,101691.66
2023-06-20T18:05:28.158Z,101629.91
2023-06-20T18:07:57.580Z,101590.88
2023-06-20T18:10:27.130Z,101534.56
2023-06-20T18:12:57.485Z,101469.34
2023-06-20T18:15:27.022Z,101422.59
2023-06-20T18:17:55.169Z,101391.44
2023-06-20T18:20:23.396Z,101342.88
2023-06-20T18:22:51.501Z,101292.63
2023-06-20T18:25:19.691Z,101259.84
2023-06-20T18:27:47.532Z,101230.25
2023-06-20T18:30:16.936Z,101198.19
2023-06-20T18:32:44.870Z,101168.91
2023-06-20T18:35:12.735Z,101144.63
2023-06-20T18:37:41.283Z,101116.19
2023-06-20T18:40:10.190Z,101088.44
2023-06-20T18:42:38.060Z,101053.88
2023-06-20T18:45:06.974Z,101023.75
2023-06-20T18:47:38.950Z,100979.59
2023-06-20T18:50:08.251Z,100935.56
2023-06-20T18:52:39.522Z,100908.97
2023-06-20T18:55:08.548Z,100867.34
2023-06-20T18:57:36.503Z,100844.09
2023-06-20T19:00:05.449Z,100806.84
2023-06-20T19:02:33.448Z,100790.53
2023-06-20T19:05:04.091Z,100759.50
2023-06-20T19:07:32.170Z,100747.34
2023-06-20T19:10:00.711Z,100730.25
2023-06-20T19:12:28.755Z,100708.00
2023-06-20T19:14:57.650Z,100688.25
2023-06-20T19:17:27.576Z,100648.34
2023-06-20T19:19:56.314Z,100631.22
2023-06-20T19:22:25.855Z,100605.50
2023-06-20T19:24:53.725Z,100579.78
2023-06-20T19:27:21.587Z,100546.16
2023-06-20T19:29:49.412Z,100526.41
2023-06-20T19:32:17.335Z,100505.72
2023-06-20T19:34:46.196Z,100481.66
2023-06-20T19:37:14.989Z,100446.22
2023-06-20T19:39:44.343Z,100430.94
2023-06-20T19:42:12.366Z,100420.78
2023-06-20T19:44:40.481Z,100410.38
2023-06-20T19:47:08.479Z,100384.53
2023-06-20T19:49:36.384Z,100369.97
2023-06-20T19:52:04.522Z,100348.44
2023-06-20T19:54:32.384Z,100323.59
2023-06-20T19:57:03.856Z,100299.59
2023-06-20T19:59:32.009Z,100292.66
2023-06-20T20:02:00.188Z,100292.81
2023-06-20T20:04:30.091Z,100299.72
2023-06-20T20:06:57.953Z,100292.13
2023-06-20T20:09:26.043Z,100286.84
2023-06-20T20:11:53.901Z,100284.31
2023-06-20T20:14:23.150Z,100272.41
2023-06-20T20:16:51.064Z,100268.09
2023-06-20T20:19:18.895Z,100270.75
2023-06-20T20:21:47.419Z,100274.34
2023-06-20T20:24:15.837Z,100274.22
2023-06-20T20:26:43.754Z,100273.53
2023-06-20T20:29:11.620Z,100274.34
2023-06-20T20:31:40.909Z,100275.19
2023-06-20T20:34:09.148Z,100278.78
2023-06-20T20:36:37.002Z,100260.75
2023-06-20T20:39:04.873Z,100243.50
2023-06-20T20:41:32.977Z,100215.06
2023-06-20T20:44:00.902Z,100187.72
2023-06-20T20:46:28.769Z,100165.44
2023-06-20T20:48:58.982Z,100140.59
2023-06-20T20:51:27.162Z,100092.47
2023-06-20T20:53:55.017Z,100053.97
2023-06-20T20:56:22.820Z,99990.34
2023-06-20T20:58:50.683Z,99949.16
2023-06-20T21:01:18.544Z,99922.56
2023-06-20T21:03:47.371Z,99892.53
2023-06-20T21:06:16.655Z,99873.72
2023-06-20T21:08:44.527Z,99873.00
2023-06-20T21:11:12.784Z,99873.16
2023-06-20T21:13:40.602Z,99865.53
2023-06-20T21:16:12.467Z,99862.09
2023-06-20T21:18:40.443Z,99870.91
2023-06-20T21:21:08.519Z,99855.44
2023-06-20T21:23:38.733Z,99853.22
2023-06-20T21:26:06.632Z,99846.28
2023-06-20T21:28:34.652Z,99827.47
2023-06-20T21:31:03.653Z,99772.69
2023-06-20T21:33:32.653Z,99748.03
2023-06-20T21:36:01.086Z,99709.41
2023-06-20T21:38:29.814Z,99711.22
2023-06-20T21:40:59.353Z,99687.28
2023-06-20T21:43:27.257Z,99651.34
2023-06-20T21:45:55.158Z,99623.28
2023-06-20T21:48:23.105Z,99575.31
2023-06-20T21:50:50.934Z,99570.50
2023-06-20T21:53:19.123Z,99571.31
2023-06-20T21:55:47.240Z,99573.22
2023-06-20T21:58:17.099Z,99565.50
2023-06-20T22:00:45.031Z,99541.44
2023-06-20T22:06:36.532Z,99553.06
2023-06-20T22:09:04.552Z,99517.84
2023-06-20T22:11:32.412Z,99470.16
2023-06-20T22:14:00.223Z,99402.63
2023-06-20T22:16:28.100Z,99325.44
2023-06-20T22:18:55.935Z,99237.41
2023-06-20T22:21:24.091Z,99194.13
2023-06-20T22:23:53.335Z,99155.75
2023-06-20T22:26:21.152Z,99131.06
2023-06-20T22:28:48.981Z,99110.66
2023-06-20T22:31:16.934Z,99103.91
2023-06-20T22:33:44.775Z,99104.06
2023-06-20T22:36:12.649Z,99110.28
2023-06-20T22:38:40.404Z,99089.06
2023-06-20T22:41:09.655Z,99045.34
2023-06-20T22:43:37.548Z,99049.91
2023-06-20T22:46:05.843Z,99058.59
2023-06-20T22:48:33.768Z,99062.19
2023-06-20T22:51:01.628Z,99079.56
2023-06-20T22:53:29.419Z,99076.13
2023-06-20T22:55:57.296Z,99075.59
2023-06-20T22:58:26.493Z,99059.47
2023-06-20T23:00:54.296Z,99068.31
2023-06-20T23:03:22.169Z,99069.13
2023-06-20T23:05:50.078Z,99062.41
2023-06-20T23:08:18.283Z,99073.72
2023-06-20T23:10:46.139Z,99064.31
2023-06-20T23:13:13.973Z,99064.47
2023-06-20T23:15:43.274Z,99067.38
2023-06-20T23:18:11.326Z,99044.22
2023-06-20T23:20:46.429Z,99029.78
2023-06-20T23:23:14.383Z,99029.06
2023-06-20T23:25:46.379Z,99031.84
2023-06-20T23:28:14.781Z,99026.91
2023-06-20T23:30:44.103Z,99033.94
2023-06-20T23:33:12.716Z,99030.59
2023-06-20T23:35:40.670Z,99021.25
2023-06-20T23:38:08.465Z,99020.56
2023-06-20T23:40:36.356Z,99003.47
2023-06-20T23:43:04.873Z,99008.88
2023-06-20T23:45:32.728Z,98999.47
2023-06-20T23:48:02.088Z,98999.59
2023-06-20T23:50:30.036Z,98995.47
2023-06-20T23:52:58.045Z,98982.81
2023-06-20T23:55:26.179Z,98964.94
2023-06-20T23:57:54.076Z,98933.41
